Relevés horaires Melle (Belgique)


Relevés horaires à Melle - Lundi 30 Nov. 2015
Heure UTC1 Température [°C] Vent [km/h] Hum. [%] Pres.4 [hPa] Visi. [Km] Nébu. [octa] Préc.5 [mm] Cond.
2m. Res. Ros. Dir.2 Vit. Moy. Raf.3
23:00 13.3 12 10.9 O 14.8 18.5 27.8 85 1018(1.8/3h) -- -- -- --
22:00 13.1 11.8 10.9 O 14.8 16.7 29.6 86 1017.7(1.9/3h) -- -- -- --
21:00 12.5 11 10.9 OSO 14.8 16.7 29.6 90 1016.9(1.3/3h) -- -- -- --
20:00 11.9 10.1 10.6 OSO 16.7 16.7 29.6 92 1016.2(1.0/3h) -- -- -- --
19:00 11.6 9.7 10.3 OSO 16.7 16.7 29.6 92 1015.8(0.5/3h) -- -- -- --
18:00 11.4 9.5 9.9 OSO 16.7 20.4 35.2 90 1015.6(-0.7/3h) -- -- 10/12h
--
17:00 12.3 10.4 9.1 OSO 18.5 20.4 35.2 81 1015.2(-1.0/3h) -- -- -- --
16:00 11.5 9.6 9.2 OSO 16.7 16.7 29.6 86 1015.3(-1.7/3h) -- -- -- --
15:00 10.9 9 9.3 OSO 14.8 20.4 31.5 90 1016.3(-1.3/3h) -- -- -- --
14:00 12.2 10.3 9.1 OSO 18.5 18.5 27.8 81 1016.2(-2.1/3h) -- -- -- --
13:00 11.1 9.1 9.4 OSO 16.7 18.5 27.8 89 1017(-1.7/3h) -- -- -- --
12:00 11.6 9.7 9.6 SO 16.7 16.7 27.8 88 1017.6(-2.0/3h) -- -- 7/6h
--
11:00 11.3 9.5 9.9 OSO 14.8 14.8 24.1 91 1018.3(-2.0/3h) -- -- -- --
10:00 11.1 9.5 10.0 SO 13.0 13.0 22.2 93 1018.7(-1.7/3h) -- -- -- --
09:00 9.5 8.6 8.2 SSO 7.4 7.4 11.1 92 1019.6(-0.8/3h) -- -- -- --
08:00 9.1 8.6 6.7 SSO 5.6 7.4 9.3 85 1020.3(0.1/3h) -- -- -- --
07:00 9.0 9.0 6.4 SO 3.7 5.6 7.4 84 1020.4(0.8/3h) -- -- -- --
06:00 9.5 9 6.6 O 5.6 16.7 24.1 82 1020.4(1.5/3h) -- -- 0.9/12h
--
05:00 9.5 9 5.4 O 5.6 9.3 14.8 76 1020.2(2.0/3h) -- -- -- --
04:00 10.1 8.9 5.7 O 9.3 9.3 16.7 74 1019.6(2.5/3h) -- -- -- --
03:00 9.7 8.8 5.9 O 7.4 16.7 24.1 77 1018.9(2.6/3h) -- -- -- --
02:00 10.4 8.9 5.1 ONO 11.1 11.1 18.5 70 1018.2(3.5/3h) -- -- -- --
01:00 10.0 8.5 6.9 ONO 11.1 16.7 24.1 81 1017.1(3.3/3h) -- -- -- --
00:00 10.4 8.4 7.4 ONO 14.8 20.4 35.2 82 1016.3(3.5/3h) -- -- 0.7/6h
--

1 Coordinated Universal Time. Actuellement il est 15:00 locale et 13:00 UTC.

2 Le vent souffle depuis la direction indiquée vers la direction oposée.

3 Les rafales max. sont disponible 40 min après l'heure du relevé.

4 Pour les stations d'altitude (plus de 600m) le géopotentiel du niveau le plus proche de la pression obligatoire est indiqué.

5 Les stations disposant d'un diffuseur peuvent indiquer "trace". Cela signifie que des précipitations ont touchés le sol mais que la quantité est inférieure à 0.1 mm.

Récapitulatif de la journée
Température [°C] Vent [km/h] Ensoleillement4 [h] Precipitations totale5 [mm] Pression [Hpa]
Min1 Max.2 Moy.3 Max. Min Max.
9.4 12.4 15.2 35.2 0 h 0 min 0 1015.2 1020.4

1 Température minimale relevée entre 18:00 UTC la veille et 18:00 UTC le jour donné.

2 Température maximale relevée entre 06:00 UTC le jour donné et 06:00 UTC le lendemain.

3 Vent moyen de la journée basé sur les relevés horaires.

4 Ensoleillement en heures relevé entre 06:00 UTC la veille et 06:00 UTC le jour donné.

5 Précipitations totales tombées entre 06:00 UTC la jour donné et 06:00 UTC le lendemain.

Graphiques horaires